Terminal Aerodrome Forecast
Issued by NWS Cleveland, OH

Home | Current Version | Previous Version | Text Only | Print | Product List | Glossary On
Versions: 1 2 3 4 5 6 7 8 9 10 11 12 13 14 15 16 17 18 19 20 21 22 23 24 25 26 27 28 29 30
000
FTUS41 KCLE 010000 AAA
TAFCLE
TAF AMD
KCLE 010034Z 0101/0206 35007KT P6SM SCT018 OVC035
     FM010300 36004KT P6SM BKN018
     FM010500 02003KT 3SM BR BKN003
      TEMPO 0106/0110 1SM BR
     FM011000 06002KT 3/4SM BR VV003
     FM011400 07004KT 5SM BR OVC010
     FM011800 04006KT P6SM BKN020=

USA.gov is the U.S. government's official web portal to all federal, state and local government web resources and services.